Time;durP1;ratioP1;P1;durP2;ratioP2;P2;SDS_P1;SDS_P2;PMS_P1;PMS_P2;Temp;Humidity;BMP_temperature;BMP_pressure;BME280_temperature;BME280_humidity;BME280_pressure;Samples;Min_cycle;Max_cycle;Signal;HPM_P1;HPM_P2
2023/01/11 00:07:00;;;;;;;11.98;7.30;;;;;;;3.55;75.95;100590.63;30990857;28;96721;-66
2023/01/11 00:22:01;;;;;;;15.35;6.65;;;;;;;3.44;75.38;100587.91;30989230;28;96669;-68
2023/01/11 00:37:02;;;;;;;14.40;6.20;;;;;;;3.02;74.64;100579.59;30987476;28;96754;-66
2023/01/11 00:52:08;;;;;;;11.60;6.13;;;;;;;2.49;75.07;100593.03;30986031;28;96703;-66
2023/01/11 01:07:10;;;;;;;10.77;6.05;;;;;;;2.23;74.79;100579.06;30985019;28;96829;-67
2023/01/11 01:22:10;;;;;;;14.43;5.22;;;;;;;2.02;75.25;100569.09;30983288;28;97512;-67
2023/01/11 01:37:11;;;;;;;6.07;3.78;;;;;;;1.79;75.02;100576.78;30982460;28;96674;-66
2023/01/11 01:52:11;;;;;;;7.22;3.75;;;;;;;1.59;75.09;100566.78;30978938;28;96674;-66
2023/01/11 02:07:13;;;;;;;8.55;4.57;;;;;;;1.39;75.27;100539.22;30979338;28;96873;-68
2023/01/11 02:22:14;;;;;;;11.27;5.28;;;;;;;1.16;75.08;100531.94;30977856;28;96715;-67
2023/01/11 02:37:25;;;;;;;6.47;3.83;;;;;;;0.93;74.61;100506.34;30977248;28;97334;-67
2023/01/11 02:52:38;;;;;;;7.63;3.53;;;;;;;0.70;74.77;100495.59;30976594;28;96680;-65
2023/01/11 03:07:51;;;;;;;4.20;3.00;;;;;;;0.67;75.40;100491.38;30996277;28;96706;-65
2023/01/11 03:23:11;;;;;;;8.68;4.90;;;;;;;0.57;75.06;100485.03;30994894;28;97840;-65
2023/01/11 03:38:22;;;;;;;6.13;4.55;;;;;;;0.36;75.67;100460.22;30992800;28;97513;-65
2023/01/11 03:53:26;;;;;;;11.25;7.18;;;;;;;0.24;75.87;100441.69;30990414;28;96972;-65
2023/01/11 04:08:27;;;;;;;10.00;6.70;;;;;;;0.06;76.39;100427.97;30988880;28;97114;-65
2023/01/11 04:23:27;;;;;;;12.95;7.95;;;;;;;0.10;77.01;100413.75;30987336;28;97846;-65
2023/01/11 04:38:27;;;;;;;10.50;5.70;;;;;;;0.14;77.27;100388.22;30985010;28;96722;-68
2023/01/11 04:53:28;;;;;;;8.18;4.90;;;;;;;0.09;76.88;100375.38;30983421;28;97951;-65
2023/01/11 05:08:29;;;;;;;10.10;3.95;;;;;;;-0.07;76.82;100359.84;30984223;28;97205;-68
2023/01/11 05:23:29;;;;;;;10.63;4.15;;;;;;;-0.20;76.95;100341.41;30980594;28;97322;-68
2023/01/11 05:38:30;;;;;;;6.80;2.97;;;;;;;-0.26;77.19;100317.41;30972508;28;97549;-65
2023/01/11 05:53:30;;;;;;;7.15;3.55;;;;;;;-0.12;77.18;100324.38;30940137;28;98678;-68
2023/01/11 06:08:31;;;;;;;7.10;2.80;;;;;;;-0.07;77.44;100311.84;30946124;28;97697;-65
2023/01/11 06:23:33;;;;;;;6.07;2.28;;;;;;;-0.09;77.16;100313.72;30959917;28;97047;-68
2023/01/11 06:38:34;;;;;;;5.15;3.33;;;;;;;-0.15;76.93;100294.00;30986635;28;96819;-67
2023/01/11 06:53:35;;;;;;;5.05;2.65;;;;;;;-0.09;77.12;100295.38;30991019;28;97632;-68
2023/01/11 07:08:37;;;;;;;4.47;2.42;;;;;;;0.37;76.96;100310.72;30988667;28;96857;-68
2023/01/11 07:23:37;;;;;;;10.80;2.30;;;;;;;1.05;76.40;100290.41;30989872;28;97168;-68
2023/01/11 07:38:37;;;;;;;5.53;2.25;;;;;;;1.77;75.01;100291.50;30986878;28;96870;-70
2023/01/11 07:53:38;;;;;;;4.85;2.13;;;;;;;2.47;73.39;100287.25;30982979;28;97215;-81
2023/01/11 08:08:38;;;;;;;5.07;2.58;;;;;;;3.18;72.51;100258.97;30985576;28;97813;-66
2023/01/11 08:23:40;;;;;;;4.53;2.33;;;;;;;3.62;70.05;100256.38;30987663;28;96636;-64
2023/01/11 08:38:40;;;;;;;7.40;2.25;;;;;;;5.09;68.76;100250.28;30985823;28;97084;-72
2023/01/11 08:53:41;;;;;;;4.18;2.47;;;;;;;6.23;64.84;100257.91;30980467;28;96950;-65
2023/01/11 09:08:41;;;;;;;4.90;2.00;;;;;;;7.48;61.30;100237.41;30979167;28;96985;-67
2023/01/11 09:23:43;;;;;;;4.47;2.08;;;;;;;6.72;61.22;100247.19;30989424;28;98014;-76
2023/01/11 09:38:44;;;;;;;7.32;3.45;;;;;;;5.79;61.08;100236.28;30988621;28;96931;-74
2023/01/11 09:53:51;;;;;;;7.75;4.32;;;;;;;5.66;62.32;100218.06;30981743;28;97208;-67
2023/01/11 10:08:52;;;;;;;7.45;2.53;;;;;;;6.91;60.97;100192.53;30976969;28;96707;-65
2023/01/11 10:24:04;;;;;;;6.83;2.97;;;;;;;11.90;55.70;100174.59;30973236;28;97012;-62
2023/01/11 10:54:44;;;;;;;5.50;3.00;;;;;;;9.65;53.42;100113.50;30968419;28;97461;-70
2023/01/11 11:09:47;;;;;;;;;;;;;;;11.55;50.65;100085.31;30848365;28;97506;-68
2023/01/11 11:25:03;;;;;;;5.37;2.50;;;;;;;11.30;49.15;100051.69;30864326;28;96767;-62
2023/01/11 11:40:04;;;;;;;3.57;1.10;;;;;;;9.35;49.58;100042.34;30866774;28;96804;-68
2023/01/11 11:55:07;;;;;;;3.97;1.40;;;;;;;9.03;50.06;100004.94;30877813;28;98574;-65
2023/01/11 12:10:25;;;;;;;5.23;1.57;;;;;;;8.65;51.03;99991.28;30862933;28;96795;-62
2023/01/11 12:25:27;;;;;;;4.13;1.67;;;;;;;8.16;51.82;99991.09;30860821;28;97175;-66
2023/01/11 12:40:33;;;;;;;4.00;1.53;;;;;;;7.49;53.78;99989.06;30859957;28;96904;-64
2023/01/11 12:55:54;;;;;;;2.50;1.33;;;;;;;7.37;54.11;99978.72;30923458;28;98321;-68
2023/01/11 13:11:08;;;;;;;5.03;1.80;;;;;;;7.06;55.40;99947.34;30957514;28;97024;-70
2023/01/11 13:26:20;;;;;;;11.87;1.90;;;;;;;6.76;56.91;99952.03;30977888;28;96689;-64
2023/01/11 13:41:26;;;;;;;8.80;2.00;;;;;;;6.48;57.44;99931.91;30976454;28;96667;-66
2023/01/11 13:56:35;;;;;;;6.10;1.60;;;;;;;6.29;57.93;99928.44;30983006;28;97069;-66
2023/01/11 14:11:57;;;;;;;5.70;1.83;;;;;;;6.10;59.17;99932.84;30973681;28;97080;-68
2023/01/11 14:27:17;;;;;;;3.72;1.48;;;;;;;6.01;60.57;99894.06;30999975;28;97878;-69
2023/01/11 14:42:50;;;;;;;3.95;2.15;;;;;;;5.88;61.72;99888.28;31024477;28;96678;-65
2023/01/11 14:57:53;;;;;;;6.20;2.85;;;;;;;5.74;62.55;99906.28;31017915;28;96627;-65
2023/01/11 15:12:56;;;;;;;3.83;2.10;;;;;;;5.65;64.14;99891.28;30977876;28;97710;-67
2023/01/11 15:27:58;;;;;;;12.75;2.88;;;;;;;5.57;65.01;99891.19;30974022;28;97376;-65
2023/01/11 15:43:17;;;;;;;7.95;2.88;;;;;;;5.48;65.74;99878.84;30976348;28;97162;-67
2023/01/11 15:58:27;;;;;;;5.15;2.80;;;;;;;5.48;66.20;99886.78;30987553;28;97305;-65
2023/01/11 16:13:45;;;;;;;7.35;3.40;;;;;;;5.59;67.46;99883.94;30977933;28;96954;-65
2023/01/11 16:28:52;;;;;;;7.63;2.80;;;;;;;5.59;67.78;99894.50;30973296;28;97321;-68
2023/01/11 16:44:01;;;;;;;6.10;2.33;;;;;;;5.68;68.69;99891.00;30974102;28;96617;-69
2023/01/11 16:59:13;;;;;;;11.77;3.28;;;;;;;5.66;68.92;99882.41;30972558;28;96796;-72
2023/01/11 17:14:52;;;;;;;6.95;2.88;;;;;;;5.73;69.58;99875.53;30969473;28;97331;-77
2023/01/11 17:29:54;;;;;;;6.07;3.70;;;;;;;5.71;69.64;99879.31;30967003;28;97351;-75
2023/01/11 17:45:14;;;;;;;6.75;3.08;;;;;;;5.63;70.27;99876.56;30964510;28;97813;-63
2023/01/11 18:00:21;;;;;;;5.97;3.85;;;;;;;5.62;70.42;99878.38;30967423;28;97126;-67
2023/01/11 18:15:35;;;;;;;6.13;3.42;;;;;;;5.68;71.04;99877.78;30963737;28;97398;-66
2023/01/11 18:30:38;;;;;;;7.18;4.53;;;;;;;5.76;71.42;99885.81;30961666;28;97158;-66
2023/01/11 18:45:40;;;;;;;8.13;3.63;;;;;;;5.88;70.67;99894.38;30962467;28;96797;-64
2023/01/11 19:00:40;;;;;;;7.35;3.75;;;;;;;5.85;70.54;99909.69;30965526;28;96673;-66
2023/01/11 19:15:40;;;;;;;8.48;3.95;;;;;;;5.86;71.20;99922.78;30961863;28;97032;-66
2023/01/11 19:30:41;;;;;;;10.93;4.97;;;;;;;6.00;71.96;99939.16;30961249;28;96943;-66
2023/01/11 19:45:41;;;;;;;10.57;5.05;;;;;;;6.07;71.18;99937.63;30975413;28;96673;-68
2023/01/11 20:00:43;;;;;;;9.48;4.70;;;;;;;6.02;72.01;99956.56;30979659;28;97339;-69
2023/01/11 20:15:43;;;;;;;9.63;4.95;;;;;;;5.90;72.43;99966.44;30944378;28;97377;-68
2023/01/11 20:30:43;;;;;;;11.05;5.75;;;;;;;5.75;73.30;99979.31;30860238;28;97356;-64
2023/01/11 20:45:53;;;;;;;8.00;4.68;;;;;;;5.62;74.82;99986.72;30861641;28;96668;-66
2023/01/11 21:00:53;;;;;;;7.97;5.15;;;;;;;5.54;75.01;100005.94;30842067;28;97306;-64
2023/01/11 21:15:54;;;;;;;9.10;5.25;;;;;;;5.43;75.79;100022.78;30857659;28;96853;-66
2023/01/11 21:31:00;;;;;;;10.95;5.03;;;;;;;5.37;76.46;100014.56;30858671;28;97577;-66
2023/01/11 21:46:01;;;;;;;9.60;5.03;;;;;;;5.34;77.14;100020.97;30857453;28;96671;-63
2023/01/11 22:01:12;;;;;;;7.25;5.03;;;;;;;5.38;77.68;100027.63;30857113;28;96807;-64
2023/01/11 22:16:15;;;;;;;9.60;5.03;;;;;;;5.44;78.16;100039.47;30853638;28;97872;-66
2023/01/11 22:31:15;;;;;;;10.97;5.87;;;;;;;5.43;78.45;100043.09;30855125;28;96624;-65
2023/01/11 22:46:18;;;;;;;9.52;5.88;;;;;;;5.42;78.81;100063.38;30853376;28;97357;-66
2023/01/11 23:01:22;;;;;;;10.68;5.18;;;;;;;5.62;79.11;100073.94;30853691;28;97417;-66
2023/01/11 23:16:23;;;;;;;6.63;4.77;;;;;;;5.64;78.75;100071.16;30861789;28;96868;-64
2023/01/11 23:31:25;;;;;;;8.43;5.45;;;;;;;5.70;79.42;100065.28;30872249;28;97168;-67
